Time;durP1;ratioP1;P1;durP2;ratioP2;P2;SDS_P1;SDS_P2;PMS_P1;PMS_P2;Temp;Humidity;BMP_temperature;BMP_pressure;BME280_temperature;BME280_humidity;BME280_pressure;Samples;Min_cycle;Max_cycle;Signal;HPM_P1;HPM_P2
2023/04/15 00:02:17;;;;;;;9.30;3.22;;;;;;;;;;7385106;19;20002;-77
2023/04/15 00:04:44;;;;;;;10.05;2.92;;;;;;;;;;7387539;19;20015;-77
2023/04/15 00:07:10;;;;;;;7.85;3.20;;;;;;;;;;7386780;19;20014;-77
2023/04/15 00:09:35;;;;;;;6.85;3.10;;;;;;;;;;7387004;19;20002;-77
2023/04/15 00:12:01;;;;;;;10.20;3.13;;;;;;;;;;7384797;19;20476;-77
2023/04/15 00:14:26;;;;;;;6.63;3.13;;;;;;;;;;7393332;19;19994;-77
2023/04/15 00:16:54;;;;;;;8.80;3.22;;;;;;;;;;7394279;19;20003;-77
2023/04/15 00:19:20;;;;;;;7.57;2.60;;;;;;;;;;7394073;19;19999;-77
2023/04/15 00:21:46;;;;;;;9.60;2.88;;;;;;;;;;7392675;19;20348;-77
2023/04/15 00:24:12;;;;;;;10.23;3.10;;;;;;;;;;7392063;19;20011;-77
2023/04/15 00:26:37;;;;;;;7.53;2.95;;;;;;;;;;7390908;19;20096;-77
2023/04/15 00:29:03;;;;;;;10.38;3.70;;;;;;;;;;7393510;19;20033;-77
2023/04/15 00:31:29;;;;;;;6.95;2.90;;;;;;;;;;7392514;19;20009;-77
2023/04/15 00:33:54;;;;;;;5.22;2.60;;;;;;;;;;7393259;19;20008;-77
2023/04/15 00:36:20;;;;;;;8.02;2.72;;;;;;;;;;7391837;19;19998;-77
2023/04/15 00:38:45;;;;;;;7.07;2.55;;;;;;;;;;7393103;19;20344;-77
2023/04/15 00:41:11;;;;;;;6.90;2.58;;;;;;;;;;7391888;19;20010;-77
2023/04/15 00:43:37;;;;;;;9.07;2.95;;;;;;;;;;7392146;19;20014;-77
2023/04/15 00:46:03;;;;;;;9.60;3.03;;;;;;;;;;7390765;19;20009;-77
2023/04/15 00:48:29;;;;;;;6.55;2.45;;;;;;;;;;7394406;19;20006;-77
2023/04/15 00:50:55;;;;;;;8.27;2.83;;;;;;;;;;7391643;19;20006;-77
2023/04/15 00:53:20;;;;;;;7.00;2.45;;;;;;;;;;7392542;19;19998;-78
2023/04/15 00:55:46;;;;;;;11.00;3.00;;;;;;;;;;7391395;19;20006;-77
2023/04/15 00:58:11;;;;;;;7.93;2.75;;;;;;;;;;7393556;19;19998;-77
2023/04/15 01:00:37;;;;;;;8.20;3.25;;;;;;;;;;7391424;19;19999;-78
2023/04/15 01:03:02;;;;;;;7.55;2.95;;;;;;;;;;7392463;19;20019;-77
2023/04/15 01:05:29;;;;;;;5.55;2.42;;;;;;;;;;7391760;19;20003;-77
2023/04/15 01:07:54;;;;;;;8.52;2.85;;;;;;;;;;7397389;19;20370;-78
2023/04/15 01:10:21;;;;;;;7.78;2.58;;;;;;;;;;7397573;19;20468;-77
2023/04/15 01:12:46;;;;;;;8.10;3.22;;;;;;;;;;7392352;19;20007;-77
2023/04/15 01:15:11;;;;;;;6.72;2.50;;;;;;;;;;7390939;19;20010;-77
2023/04/15 01:17:38;;;;;;;8.20;2.90;;;;;;;;;;7392157;19;20041;-77
2023/04/15 01:20:04;;;;;;;6.88;2.80;;;;;;;;;;7391196;19;20026;-76
2023/04/15 01:22:30;;;;;;;5.38;2.40;;;;;;;;;;7390969;19;20006;-77
2023/04/15 01:25:21;;;;;;;7.45;2.72;;;;;;;;;;7387812;19;20547;-77
2023/04/15 01:27:47;;;;;;;8.63;2.85;;;;;;;;;;7392176;19;20074;-77
2023/04/15 01:30:12;;;;;;;6.75;2.40;;;;;;;;;;7390071;19;20006;-77
2023/04/15 01:32:37;;;;;;;6.88;2.70;;;;;;;;;;7391900;19;20016;-77
2023/04/15 01:35:03;;;;;;;7.10;2.40;;;;;;;;;;7391105;19;20507;-77
2023/04/15 01:37:29;;;;;;;7.93;2.60;;;;;;;;;;7390350;19;20007;-77
2023/04/15 01:39:56;;;;;;;5.32;2.75;;;;;;;;;;7391537;19;20583;-77
2023/04/15 01:42:21;;;;;;;8.60;2.50;;;;;;;;;;7390894;19;20007;-77
2023/04/15 01:44:47;;;;;;;6.85;2.60;;;;;;;;;;7390211;19;20003;-77
2023/04/15 01:47:13;;;;;;;9.60;2.60;;;;;;;;;;7391707;19;20036;-77
2023/04/15 01:49:38;;;;;;;8.85;3.00;;;;;;;;;;7391883;19;20003;-78
2023/04/15 01:52:03;;;;;;;8.15;2.67;;;;;;;;;;7390383;19;20005;-77
2023/04/15 01:54:28;;;;;;;7.70;2.47;;;;;;;;;;7390799;19;20127;-77
2023/04/15 01:56:55;;;;;;;6.53;2.45;;;;;;;;;;7393430;19;19999;-77
2023/04/15 01:59:21;;;;;;;8.02;2.90;;;;;;;;;;7390329;19;20019;-77
2023/04/15 02:01:46;;;;;;;5.15;2.47;;;;;;;;;;7389870;19;20083;-78
2023/04/15 02:04:18;;;;;;;5.38;2.47;;;;;;;;;;7388492;19;20471;-77
2023/04/15 02:06:43;;;;;;;;;;;;;;;;;;7394706;19;20065;-77
2023/04/15 02:09:09;;;;;;;6.38;2.60;;;;;;;;;;7390579;19;20332;-76
2023/04/15 02:11:36;;;;;;;5.72;2.30;;;;;;;;;;7388707;19;20010;-77
2023/04/15 02:14:01;;;;;;;9.23;2.50;;;;;;;;;;7391244;19;20362;-77
2023/04/15 02:16:27;;;;;;;6.35;2.58;;;;;;;;;;7388858;19;20062;-77
2023/04/15 02:18:52;;;;;;;5.93;2.80;;;;;;;;;;7388345;19;19995;-77
2023/04/15 02:21:17;;;;;;;9.27;2.45;;;;;;;;;;7389992;19;19995;-77
2023/04/15 02:23:43;;;;;;;6.22;2.40;;;;;;;;;;7389298;19;20737;-77
2023/04/15 02:26:08;;;;;;;5.00;2.17;;;;;;;;;;7389237;19;19998;-77
2023/04/15 02:28:34;;;;;;;5.53;2.38;;;;;;;;;;7392932;19;20491;-77
2023/04/15 02:31:01;;;;;;;6.00;2.40;;;;;;;;;;7388283;19;20002;-76
2023/04/15 02:33:26;;;;;;;5.43;2.25;;;;;;;;;;7389022;19;20007;-76
2023/04/15 02:35:52;;;;;;;6.40;2.50;;;;;;;;;;7389738;19;19998;-76
2023/04/15 02:38:17;;;;;;;5.85;2.03;;;;;;;;;;7392463;19;20022;-77
2023/04/15 02:40:42;;;;;;;7.35;2.40;;;;;;;;;;7388241;19;20011;-77
2023/04/15 02:43:08;;;;;;;10.05;2.38;;;;;;;;;;7387692;19;20007;-77
2023/04/15 02:45:33;;;;;;;4.85;2.13;;;;;;;;;;7387860;19;20030;-76
2023/04/15 02:48:02;;;;;;;5.25;2.38;;;;;;;;;;7404078;19;20337;-77
2023/04/15 02:50:28;;;;;;;11.70;3.00;;;;;;;;;;7388491;19;20535;-77
2023/04/15 02:52:53;;;;;;;4.78;2.33;;;;;;;;;;7389092;19;20005;-77
2023/04/15 02:55:18;;;;;;;7.38;2.85;;;;;;;;;;7387752;19;20070;-76
2023/04/15 02:57:43;;;;;;;8.15;2.60;;;;;;;;;;7387744;19;20032;-76
2023/04/15 03:00:10;;;;;;;8.52;2.70;;;;;;;;;;7391405;19;20002;-77
2023/04/15 03:02:39;;;;;;;4.75;2.67;;;;;;;;;;7391690;19;19999;-76
2023/04/15 03:05:05;;;;;;;11.63;2.95;;;;;;;;;;7387217;19;19999;-78
2023/04/15 03:07:31;;;;;;;6.18;2.33;;;;;;;;;;7388317;19;20005;-78
2023/04/15 03:09:56;;;;;;;7.57;2.40;;;;;;;;;;7388751;19;20086;-78
2023/04/15 03:12:22;;;;;;;7.90;2.75;;;;;;;;;;7387288;19;20014;-77
2023/04/15 03:14:47;;;;;;;6.75;3.00;;;;;;;;;;7387729;19;19998;-77
2023/04/15 03:17:12;;;;;;;3.67;2.10;;;;;;;;;;7388377;19;20023;-76
2023/04/15 03:19:38;;;;;;;7.07;2.67;;;;;;;;;;7387998;19;19995;-76
2023/04/15 03:22:03;;;;;;;8.50;2.35;;;;;;;;;;7386462;19;20487;-77
2023/04/15 03:24:29;;;;;;;5.32;2.63;;;;;;;;;;7387022;19;20046;-76
2023/04/15 03:26:55;;;;;;;5.00;2.40;;;;;;;;;;7386452;19;19994;-76
2023/04/15 03:29:20;;;;;;;5.45;2.35;;;;;;;;;;7387605;19;20001;-78
2023/04/15 03:31:46;;;;;;;7.35;2.78;;;;;;;;;;7386755;19;19998;-78
2023/04/15 03:34:11;;;;;;;6.82;2.45;;;;;;;;;;7388124;19;19995;-78
2023/04/15 03:36:36;;;;;;;8.77;2.75;;;;;;;;;;7385971;19;20532;-78
2023/04/15 03:39:02;;;;;;;7.00;2.33;;;;;;;;;;7388439;19;20453;-77
2023/04/15 03:41:27;;;;;;;5.55;2.35;;;;;;;;;;7386669;19;20029;-77
2023/04/15 03:43:53;;;;;;;5.63;2.38;;;;;;;;;;7387584;19;20058;-76
2023/04/15 03:46:18;;;;;;;6.30;2.38;;;;;;;;;;7387390;19;20470;-77
2023/04/15 03:48:44;;;;;;;7.25;2.75;;;;;;;;;;7391070;19;20370;-77
2023/04/15 03:51:10;;;;;;;6.43;2.47;;;;;;;;;;7393643;19;20029;-77
2023/04/15 03:53:35;;;;;;;8.52;2.72;;;;;;;;;;7395540;19;19998;-77
2023/04/15 03:56:01;;;;;;;10.43;2.67;;;;;;;;;;7393043;19;19998;-77
2023/04/15 03:58:26;;;;;;;8.60;2.80;;;;;;;;;;7395332;19;20336;-77
2023/04/15 04:00:52;;;;;;;6.10;2.50;;;;;;;;;;7395758;19;20001;-77
2023/04/15 04:03:17;;;;;;;6.00;2.13;;;;;;;;;;7394360;19;19994;-76
2023/04/15 04:05:43;;;;;;;7.88;2.95;;;;;;;;;;7398085;19;20002;-77
2023/04/15 04:08:09;;;;;;;7.70;2.50;;;;;;;;;;7395731;19;19999;-77
2023/04/15 04:10:34;;;;;;;4.60;2.72;;;;;;;;;;7393323;19;20058;-76
2023/04/15 04:13:00;;;;;;;5.82;2.65;;;;;;;;;;7394599;19;20066;-76
2023/04/15 04:15:26;;;;;;;7.07;2.50;;;;;;;;;;7395447;19;19994;-76
2023/04/15 04:17:51;;;;;;;9.93;2.80;;;;;;;;;;7395229;19;19990;-76
2023/04/15 04:20:16;;;;;;;9.75;3.28;;;;;;;;;;7395122;19;20026;-77
2023/04/15 04:22:42;;;;;;;6.13;2.60;;;;;;;;;;7399186;19;19999;-77
2023/04/15 04:25:08;;;;;;;9.18;2.83;;;;;;;;;;7400476;19;20035;-78
2023/04/15 04:27:34;;;;;;;6.22;2.60;;;;;;;;;;7401422;19;20464;-77
2023/04/15 04:30:00;;;;;;;7.55;2.45;;;;;;;;;;7396471;19;20022;-77
2023/04/15 04:32:25;;;;;;;5.15;2.72;;;;;;;;;;7395214;19;19994;-77
2023/04/15 04:34:51;;;;;;;6.70;2.63;;;;;;;;;;7392754;19;19998;-77
2023/04/15 04:37:16;;;;;;;8.40;2.78;;;;;;;;;;7393143;19;19995;-77
2023/04/15 04:39:41;;;;;;;5.70;2.85;;;;;;;;;;7393809;19;20015;-77
2023/04/15 04:42:07;;;;;;;9.68;2.80;;;;;;;;;;7392184;19;20022;-77
2023/04/15 04:44:32;;;;;;;8.43;2.63;;;;;;;;;;7389604;19;20019;-77
2023/04/15 04:47:00;;;;;;;5.22;2.50;;;;;;;;;;7393363;19;19999;-77
2023/04/15 04:49:25;;;;;;;5.55;2.45;;;;;;;;;;7393534;19;20018;-77
2023/04/15 04:51:51;;;;;;;6.50;2.95;;;;;;;;;;7391982;19;20058;-77
2023/04/15 04:54:16;;;;;;;6.85;3.03;;;;;;;;;;7392785;19;20663;-77
2023/04/15 04:56:41;;;;;;;6.85;3.10;;;;;;;;;;7393170;19;19995;-77
2023/04/15 04:59:07;;;;;;;6.28;2.67;;;;;;;;;;7391728;19;20011;-76
2023/04/15 05:01:32;;;;;;;8.27;3.35;;;;;;;;;;7390240;19;20001;-77
2023/04/15 05:03:58;;;;;;;6.95;3.00;;;;;;;;;;7390865;19;20408;-76
2023/04/15 05:06:23;;;;;;;8.18;3.25;;;;;;;;;;7390502;19;20002;-76
2023/04/15 05:08:49;;;;;;;6.35;3.28;;;;;;;;;;7392409;19;20358;-76
2023/04/15 05:11:15;;;;;;;7.93;3.50;;;;;;;;;;7391049;19;20468;-76
2023/04/15 05:13:40;;;;;;;8.13;3.33;;;;;;;;;;7392969;19;20066;-76
2023/04/15 05:16:06;;;;;;;5.55;3.10;;;;;;;;;;7390603;19;20418;-76
2023/04/15 05:18:31;;;;;;;8.23;2.92;;;;;;;;;;7392563;19;20468;-76
2023/04/15 05:20:57;;;;;;;6.78;3.20;;;;;;;;;;7391255;19;20075;-76
2023/04/15 05:23:22;;;;;;;6.13;3.00;;;;;;;;;;7392793;19;20002;-76
2023/04/15 05:25:48;;;;;;;6.95;3.30;;;;;;;;;;7391033;19;20091;-77
2023/04/15 05:28:13;;;;;;;4.93;2.80;;;;;;;;;;7392731;19;20001;-78
2023/04/15 05:30:39;;;;;;;8.30;3.70;;;;;;;;;;7391573;19;20014;-77
2023/04/15 05:33:04;;;;;;;7.15;3.00;;;;;;;;;;7392151;19;20106;-77
2023/04/15 05:35:30;;;;;;;6.88;2.85;;;;;;;;;;7390989;19;20010;-77
2023/04/15 05:37:55;;;;;;;7.85;2.65;;;;;;;;;;7392213;19;20004;-77
2023/04/15 05:40:21;;;;;;;8.15;3.10;;;;;;;;;;7390441;19;20058;-75
2023/04/15 05:42:46;;;;;;;7.57;3.03;;;;;;;;;;7392825;19;19998;-75
2023/04/15 05:45:12;;;;;;;10.93;3.35;;;;;;;;;;7388430;19;20074;-76
2023/04/15 05:47:37;;;;;;;8.48;4.22;;;;;;;;;;7391757;19;19994;-77
2023/04/15 05:50:03;;;;;;;9.32;3.40;;;;;;;;;;7391729;19;19991;-77
2023/04/15 05:52:30;;;;;;;8.25;3.42;;;;;;;;;;7390835;19;20022;-77
2023/04/15 05:54:55;;;;;;;8.25;3.42;;;;;;;;;;7389368;19;20003;-76
2023/04/15 05:57:20;;;;;;;7.35;3.22;;;;;;;;;;7392019;19;20058;-76
2023/04/15 05:59:46;;;;;;;7.97;3.13;;;;;;;;;;7391834;19;20467;-76
2023/04/15 06:02:12;;;;;;;12.18;3.20;;;;;;;;;;7393842;19;20015;-76
2023/04/15 06:04:38;;;;;;;7.65;3.65;;;;;;;;;;7395348;19;19990;-77
2023/04/15 06:07:03;;;;;;;7.50;4.40;;;;;;;;;;7398384;19;19998;-77
2023/04/15 06:09:29;;;;;;;7.43;4.03;;;;;;;;;;7392413;19;20468;-76
2023/04/15 06:11:55;;;;;;;7.88;4.30;;;;;;;;;;7390933;19;19997;-76
2023/04/15 06:14:21;;;;;;;7.13;3.97;;;;;;;;;;7395520;19;19995;-76
2023/04/15 06:16:46;;;;;;;10.25;4.18;;;;;;;;;;7393157;19;20404;-76
2023/04/15 06:19:11;;;;;;;6.75;3.78;;;;;;;;;;7393254;19;20010;-78
2023/04/15 06:21:37;;;;;;;9.20;4.18;;;;;;;;;;7392828;19;20014;-77
2023/04/15 06:24:02;;;;;;;12.15;3.78;;;;;;;;;;7389095;19;19995;-77
2023/04/15 06:26:28;;;;;;;8.55;3.75;;;;;;;;;;7391713;19;19995;-76
2023/04/15 06:28:53;;;;;;;8.07;3.75;;;;;;;;;;7392399;19;20448;-77
2023/04/15 06:31:22;;;;;;;8.13;3.70;;;;;;;;;;7392095;19;20536;-78
2023/04/15 06:33:47;;;;;;;10.23;4.22;;;;;;;;;;7392979;19;20406;-76
2023/04/15 06:36:12;;;;;;;8.23;3.88;;;;;;;;;;7386983;19;19998;-77
2023/04/15 06:38:38;;;;;;;12.88;4.10;;;;;;;;;;7388450;19;20001;-76
2023/04/15 06:41:04;;;;;;;9.68;4.40;;;;;;;;;;7385587;19;20471;-77
2023/04/15 06:43:29;;;;;;;10.10;4.20;;;;;;;;;;7389435;19;20034;-77
2023/04/15 06:45:55;;;;;;;7.68;3.95;;;;;;;;;;7386398;19;20001;-77
2023/04/15 06:48:21;;;;;;;7.03;3.63;;;;;;;;;;7392732;19;19995;-78
2023/04/15 06:50:47;;;;;;;7.45;3.90;;;;;;;;;;7393594;19;20006;-76
2023/04/15 06:53:13;;;;;;;8.68;3.47;;;;;;;;;;7390887;19;20560;-76
2023/04/15 06:55:39;;;;;;;14.23;3.83;;;;;;;;;;7390585;19;19998;-73
2023/04/15 06:58:04;;;;;;;9.73;4.30;;;;;;;;;;7394179;19;20000;-75
2023/04/15 07:00:30;;;;;;;7.00;3.30;;;;;;;;;;7388173;19;19998;-64
2023/04/15 07:02:55;;;;;;;10.20;3.08;;;;;;;;;;7387974;19;20018;-75
2023/04/15 07:05:21;;;;;;;7.55;3.00;;;;;;;;;;7390012;19;20465;-65
2023/04/15 07:07:46;;;;;;;7.63;2.97;;;;;;;;;;7386645;19;19998;-74
2023/04/15 07:10:11;;;;;;;8.68;2.72;;;;;;;;;;7387487;19;20289;-73
2023/04/15 07:12:37;;;;;;;7.38;2.92;;;;;;;;;;7388169;19;20002;-72
2023/04/15 07:15:03;;;;;;;7.07;3.30;;;;;;;;;;7388260;19;19999;-73
2023/04/15 07:17:28;;;;;;;7.95;2.75;;;;;;;;;;7388371;19;19999;-73
2023/04/15 07:19:54;;;;;;;12.00;3.90;;;;;;;;;;7388127;19;20065;-72
2023/04/15 07:22:19;;;;;;;8.68;2.90;;;;;;;;;;7385368;19;20074;-74
2023/04/15 07:24:45;;;;;;;9.48;2.78;;;;;;;;;;7389667;19;20002;-73
2023/04/15 07:27:10;;;;;;;7.25;3.22;;;;;;;;;;7389374;19;20018;-72
2023/04/15 07:29:36;;;;;;;12.18;3.22;;;;;;;;;;7390727;19;20376;-74
2023/04/15 07:32:01;;;;;;;18.63;4.05;;;;;;;;;;7386782;19;19991;-73
2023/04/15 07:34:27;;;;;;;9.95;2.85;;;;;;;;;;7389024;19;20449;-74
2023/04/15 07:36:53;;;;;;;5.38;2.78;;;;;;;;;;7390049;19;19994;-75
2023/04/15 07:39:18;;;;;;;10.70;3.33;;;;;;;;;;7387131;19;20385;-75
2023/04/15 07:41:43;;;;;;;12.07;3.30;;;;;;;;;;7385958;19;20007;-75
2023/04/15 07:44:09;;;;;;;5.97;3.13;;;;;;;;;;7389034;19;19991;-75
2023/04/15 07:46:36;;;;;;;9.43;3.42;;;;;;;;;;7385141;19;20452;-75
2023/04/15 07:49:01;;;;;;;11.43;3.25;;;;;;;;;;7387667;19;20464;-75
2023/04/15 07:51:28;;;;;;;7.57;3.72;;;;;;;;;;7385313;19;20001;-74
2023/04/15 07:53:53;;;;;;;8.63;3.05;;;;;;;;;;7387468;19;19995;-73
2023/04/15 07:56:19;;;;;;;6.82;2.55;;;;;;;;;;7384774;19;20062;-74
2023/04/15 07:58:44;;;;;;;9.82;2.97;;;;;;;;;;7388078;19;20342;-74
2023/04/15 08:01:10;;;;;;;8.32;2.65;;;;;;;;;;7386876;19;20006;-74
2023/04/15 08:03:36;;;;;;;5.40;2.58;;;;;;;;;;7387199;19;20003;-74
2023/04/15 08:06:01;;;;;;;7.28;3.28;;;;;;;;;;7386062;19;19995;-74
2023/04/15 08:08:27;;;;;;;7.72;3.00;;;;;;;;;;7387545;19;20341;-76
2023/04/15 08:10:52;;;;;;;10.20;2.90;;;;;;;;;;7387744;19;19987;-74
2023/04/15 08:13:17;;;;;;;5.30;2.60;;;;;;;;;;7390902;19;20085;-74
2023/04/15 08:15:43;;;;;;;7.50;2.97;;;;;;;;;;7385547;19;19999;-74
2023/04/15 08:18:08;;;;;;;6.82;3.05;;;;;;;;;;7387201;19;19994;-74
2023/04/15 08:20:34;;;;;;;8.48;2.90;;;;;;;;;;7387937;19;20069;-76
2023/04/15 08:22:59;;;;;;;5.95;2.50;;;;;;;;;;7384902;19;20402;-74
2023/04/15 08:25:25;;;;;;;7.10;3.00;;;;;;;;;;7384541;19;20023;-75
2023/04/15 08:27:51;;;;;;;7.13;3.13;;;;;;;;;;7386603;19;20019;-75
2023/04/15 08:30:16;;;;;;;9.07;3.60;;;;;;;;;;7385853;19;20018;-75
2023/04/15 08:32:45;;;;;;;7.80;3.08;;;;;;;;;;7386739;19;20006;-74
2023/04/15 08:35:11;;;;;;;6.22;2.53;;;;;;;;;;7391471;19;20058;-74
2023/04/15 08:37:36;;;;;;;10.23;2.80;;;;;;;;;;7394587;19;20025;-74
2023/04/15 08:40:02;;;;;;;6.43;3.15;;;;;;;;;;7394234;19;20023;-76
2023/04/15 08:42:38;;;;;;;7.70;3.25;;;;;;;;;;7393306;19;20001;-74
2023/04/15 08:45:04;;;;;;;7.82;3.20;;;;;;;;;;7391118;19;20018;-75
2023/04/15 08:47:33;;;;;;;10.93;3.22;;;;;;;;;;7390644;19;19999;-75
2023/04/15 08:50:00;;;;;;;8.70;3.00;;;;;;;;;;7390577;19;20022;-75
2023/04/15 08:52:26;;;;;;;7.53;2.90;;;;;;;;;;7389844;19;19995;-75
2023/04/15 08:54:55;;;;;;;5.95;3.05;;;;;;;;;;7389973;19;20018;-74
2023/04/15 08:57:26;;;;;;;7.05;2.60;;;;;;;;;;7390497;19;20020;-74
2023/04/15 08:59:54;;;;;;;6.72;2.75;;;;;;;;;;7390408;19;20365;-74
2023/04/15 09:02:20;;;;;;;8.52;2.53;;;;;;;;;;7388899;19;19995;-74
2023/04/15 09:04:46;;;;;;;7.82;2.72;;;;;;;;;;7388242;19;20003;-74
2023/04/15 09:07:11;;;;;;;5.68;2.58;;;;;;;;;;7388610;19;20022;-75
2023/04/15 09:09:39;;;;;;;6.65;2.80;;;;;;;;;;7390149;19;19998;-74
2023/04/15 09:12:04;;;;;;;4.90;2.53;;;;;;;;;;7386867;19;19998;-74
2023/04/15 09:14:32;;;;;;;5.82;2.63;;;;;;;;;;7389442;19;20001;-74
2023/04/15 09:17:00;;;;;;;8.32;3.10;;;;;;;;;;7389861;19;20026;-74
2023/04/15 09:19:26;;;;;;;5.75;2.65;;;;;;;;;;7390675;19;20026;-74
2023/04/15 09:21:56;;;;;;;6.78;2.65;;;;;;;;;;7388937;19;19990;-74
2023/04/15 09:24:22;;;;;;;6.03;2.63;;;;;;;;;;7387995;19;20073;-73
2023/04/15 09:26:51;;;;;;;6.85;2.70;;;;;;;;;;7389523;19;20113;-75
2023/04/15 09:29:17;;;;;;;6.95;2.75;;;;;;;;;;7389889;19;19999;-75
2023/04/15 09:31:43;;;;;;;6.60;2.88;;;;;;;;;;7387950;19;20099;-75
2023/04/15 09:34:08;;;;;;;5.80;2.70;;;;;;;;;;7389457;19;20467;-75
2023/04/15 09:36:46;;;;;;;7.15;2.75;;;;;;;;;;7386472;19;20467;-74
2023/04/15 09:39:12;;;;;;;5.47;2.70;;;;;;;;;;7389111;19;20003;-74
2023/04/15 09:41:37;;;;;;;7.45;2.90;;;;;;;;;;7389311;19;20006;-75
2023/04/15 09:44:03;;;;;;;6.68;3.05;;;;;;;;;;7389363;19;19998;-74
2023/04/15 09:46:42;;;;;;;7.20;2.67;;;;;;;;;;7247544;19;2747027;-74
2023/04/15 09:49:09;;;;;;;4.80;2.50;;;;;;;;;;7391180;19;20039;-75
2023/04/15 09:51:34;;;;;;;5.75;2.40;;;;;;;;;;7390864;19;20357;-75
2023/04/15 09:54:00;;;;;;;8.27;2.45;;;;;;;;;;7396182;19;20010;-75
2023/04/15 09:56:33;;;;;;;5.07;2.40;;;;;;;;;;7396534;19;20379;-73
2023/04/15 09:58:59;;;;;;;4.95;2.35;;;;;;;;;;7396013;19;20009;-73
2023/04/15 10:01:24;;;;;;;4.72;2.63;;;;;;;;;;7392507;19;19994;-75
2023/04/15 10:03:51;;;;;;;4.90;2.30;;;;;;;;;;7390616;19;19990;-73
2023/04/15 10:06:17;;;;;;;5.35;2.22;;;;;;;;;;7393189;19;19999;-75
2023/04/15 10:08:42;;;;;;;5.53;2.20;;;;;;;;;;7393840;19;19987;-75
2023/04/15 10:11:08;;;;;;;6.32;2.20;;;;;;;;;;7392426;19;20008;-74
2023/04/15 10:13:36;;;;;;;7.00;1.92;;;;;;;;;;7390414;19;20331;-75
2023/04/15 10:16:06;;;;;;;6.93;1.70;;;;;;;;;;7384395;19;20073;-76
2023/04/15 10:18:34;;;;;;;4.63;1.38;;;;;;;;;;7383633;19;20356;-73
2023/04/15 10:21:00;;;;;;;14.77;2.47;;;;;;;;;;7382950;19;20002;-74
2023/04/15 10:23:26;;;;;;;5.40;1.60;;;;;;;;;;7386449;19;19999;-74
2023/04/15 10:25:55;;;;;;;5.72;1.58;;;;;;;;;;7385772;19;20326;-74
2023/04/15 10:28:21;;;;;;;3.83;1.58;;;;;;;;;;7387509;19;20003;-74
2023/04/15 10:30:48;;;;;;;4.78;1.55;;;;;;;;;;7391610;19;20005;-74
2023/04/15 10:33:15;;;;;;;5.10;1.48;;;;;;;;;;7389563;19;20104;-74
2023/04/15 10:35:41;;;;;;;7.18;1.77;;;;;;;;;;7389569;19;20571;-74
2023/04/15 10:38:42;;;;;;;5.47;1.58;;;;;;;;;;7389791;19;20002;-74
2023/04/15 10:41:21;;;;;;;4.68;1.50;;;;;;;;;;7387728;19;20022;-75
2023/04/15 10:43:59;;;;;;;2.97;1.60;;;;;;;;;;7394556;19;20003;-74
2023/04/15 10:46:44;;;;;;;3.45;1.20;;;;;;;;;;7391172;19;20090;-75
2023/04/15 10:49:15;;;;;;;1.92;1.25;;;;;;;;;;7389309;19;20023;-75
2023/04/15 10:51:43;;;;;;;2.90;1.30;;;;;;;;;;7388683;19;19998;-74
2023/04/15 10:54:29;;;;;;;4.07;1.58;;;;;;;;;;7389528;19;20014;-74
2023/04/15 10:57:01;;;;;;;4.53;1.60;;;;;;;;;;7388240;19;20493;-74
2023/04/15 10:59:30;;;;;;;2.72;1.40;;;;;;;;;;7388491;19;20002;-75
2023/04/15 11:01:59;;;;;;;4.28;1.58;;;;;;;;;;7385760;19;20003;-74
2023/04/15 11:04:51;;;;;;;3.90;1.50;;;;;;;;;;7387922;19;20510;-74
2023/04/15 11:07:39;;;;;;;2.47;1.42;;;;;;;;;;7386888;19;20393;-75
2023/04/15 11:10:17;;;;;;;3.33;1.40;;;;;;;;;;7383496;19;20298;-75
2023/04/15 11:13:04;;;;;;;2.53;1.50;;;;;;;;;;7384282;19;20002;-75
2023/04/15 11:15:45;;;;;;;6.97;1.60;;;;;;;;;;7386339;19;20055;-74
2023/04/15 11:18:17;;;;;;;4.45;1.65;;;;;;;;;;7385717;19;20007;-74
2023/04/15 11:20:45;;;;;;;5.53;1.40;;;;;;;;;;7386351;19;20007;-74
2023/04/15 11:23:11;;;;;;;3.10;1.60;;;;;;;;;;7390576;19;20002;-75
2023/04/15 11:25:36;;;;;;;2.70;1.60;;;;;;;;;;7385099;19;20014;-75
2023/04/15 11:28:03;;;;;;;3.58;1.60;;;;;;;;;;7389198;19;20102;-74
2023/04/15 11:30:32;;;;;;;2.03;1.40;;;;;;;;;;7386977;19;20095;-75
2023/04/15 11:33:00;;;;;;;3.65;1.67;;;;;;;;;;7388578;19;20040;-75
2023/04/15 11:35:25;;;;;;;4.32;1.70;;;;;;;;;;7386067;19;20474;-75
2023/04/15 11:37:51;;;;;;;2.10;1.30;;;;;;;;;;7388473;19;20003;-75
2023/04/15 11:40:21;;;;;;;2.70;1.25;;;;;;;;;;7385108;19;20002;-75
2023/04/15 11:43:03;;;;;;;4.00;1.10;;;;;;;;;;7388309;19;20002;-75
2023/04/15 11:45:28;;;;;;;2.25;1.00;;;;;;;;;;7386173;19;19999;-74
2023/04/15 11:47:54;;;;;;;2.05;1.10;;;;;;;;;;7389254;19;20015;-74
2023/04/15 11:50:22;;;;;;;1.40;1.10;;;;;;;;;;7386835;19;20070;-74
2023/04/15 11:52:58;;;;;;;3.35;1.30;;;;;;;;;;7389518;19;20013;-75
2023/04/15 11:55:24;;;;;;;1.50;1.00;;;;;;;;;;7386868;19;20003;-74
2023/04/15 11:58:05;;;;;;;2.92;1.05;;;;;;;;;;7387851;19;20023;-74
2023/04/15 12:00:31;;;;;;;1.85;1.00;;;;;;;;;;7387456;19;20250;-74
2023/04/15 12:03:12;;;;;;;2.25;1.25;;;;;;;;;;7387741;19;20016;-74
2023/04/15 12:05:57;;;;;;;;;;;;;;;;;;7386382;19;20023;-74
2023/04/15 12:08:23;;;;;;;1.27;1.00;;;;;;;;;;7387507;19;19914;-75
2023/04/15 12:10:48;;;;;;;2.47;1.17;;;;;;;;;;7393971;19;20001;-75
2023/04/15 12:13:13;;;;;;;1.60;1.02;;;;;;;;;;7398801;19;19998;-74
2023/04/15 12:15:38;;;;;;;1.63;1.13;;;;;;;;;;7392857;19;20006;-74
2023/04/15 12:18:04;;;;;;;1.83;1.10;;;;;;;;;;7394591;19;20002;-74
2023/04/15 12:20:30;;;;;;;2.20;1.30;;;;;;;;;;7392841;19;19998;-74
2023/04/15 12:23:04;;;;;;;1.75;1.20;;;;;;;;;;7394807;19;19998;-74
2023/04/15 12:25:34;;;;;;;2.88;1.25;;;;;;;;;;7392189;19;20417;-74
2023/04/15 12:27:59;;;;;;;1.70;1.20;;;;;;;;;;7398443;19;19994;-75
2023/04/15 12:30:25;;;;;;;1.20;1.10;;;;;;;;;;7396001;19;20005;-76
2023/04/15 12:32:51;;;;;;;2.17;1.20;;;;;;;;;;7394599;19;20009;-75
2023/04/15 12:35:18;;;;;;;1.50;1.13;;;;;;;;;;7395389;19;20070;-75
2023/04/15 12:37:43;;;;;;;2.05;1.08;;;;;;;;;;7394100;19;19999;-75
2023/04/15 12:40:09;;;;;;;1.20;1.02;;;;;;;;;;7392651;19;19998;-75
2023/04/15 12:42:34;;;;;;;3.53;1.30;;;;;;;;;;7393559;19;20002;-75
2023/04/15 12:45:00;;;;;;;2.35;1.05;;;;;;;;;;7392289;19;20025;-74
2023/04/15 12:47:25;;;;;;;2.30;1.40;;;;;;;;;;7391371;19;20070;-75
2023/04/15 12:49:51;;;;;;;3.67;1.27;;;;;;;;;;7391220;19;20006;-74
2023/04/15 12:52:16;;;;;;;1.95;1.35;;;;;;;;;;7393597;19;19995;-74
2023/04/15 12:54:41;;;;;;;2.25;1.30;;;;;;;;;;7380381;19;20042;-74
2023/04/15 12:57:07;;;;;;;1.63;1.27;;;;;;;;;;7392585;19;20003;-74
2023/04/15 12:59:32;;;;;;;2.55;1.50;;;;;;;;;;7390077;19;20007;-75
2023/04/15 13:01:59;;;;;;;1.33;1.15;;;;;;;;;;7389389;19;20024;-75
2023/04/15 13:04:29;;;;;;;2.40;1.23;;;;;;;;;;7387895;19;20161;-76
2023/04/15 13:06:55;;;;;;;1.38;1.10;;;;;;;;;;7390134;19;20014;-76
2023/04/15 13:09:20;;;;;;;2.90;1.50;;;;;;;;;;7388439;19;20011;-76
2023/04/15 13:11:45;;;;;;;1.65;1.40;;;;;;;;;;7388516;19;20388;-77
2023/04/15 13:14:11;;;;;;;3.08;1.60;;;;;;;;;;7395645;19;20027;-77
2023/04/15 13:16:37;;;;;;;2.42;1.50;;;;;;;;;;7391593;19;20468;-76
2023/04/15 13:19:03;;;;;;;1.45;1.30;;;;;;;;;;7391870;19;20062;-76
2023/04/15 13:21:30;;;;;;;1.42;1.30;;;;;;;;;;7389584;19;20376;-76
2023/04/15 13:23:55;;;;;;;2.60;1.70;;;;;;;;;;7389106;19;20090;-76
2023/04/15 13:26:21;;;;;;;1.67;1.33;;;;;;;;;;7390731;19;20472;-76
2023/04/15 13:28:46;;;;;;;2.85;1.52;;;;;;;;;;7392982;19;20387;-77
2023/04/15 13:31:11;;;;;;;4.15;1.40;;;;;;;;;;7390960;19;20467;-76
2023/04/15 13:33:37;;;;;;;2.00;1.52;;;;;;;;;;7393311;19;20045;-76
2023/04/15 13:36:02;;;;;;;1.98;1.50;;;;;;;;;;7390445;19;20030;-75
2023/04/15 13:38:28;;;;;;;2.70;1.13;;;;;;;;;;7391496;19;20381;-78
2023/04/15 13:40:53;;;;;;;1.80;1.30;;;;;;;;;;7389323;19;20330;-77
2023/04/15 13:43:18;;;;;;;2.08;1.52;;;;;;;;;;7391576;19;20340;-75
2023/04/15 13:45:45;;;;;;;2.35;1.50;;;;;;;;;;7388008;19;20006;-76
2023/04/15 13:48:11;;;;;;;2.00;1.30;;;;;;;;;;7393269;19;20003;-75
2023/04/15 13:50:36;;;;;;;2.63;1.50;;;;;;;;;;7391651;19;20930;-76
2023/04/15 13:53:02;;;;;;;2.67;1.42;;;;;;;;;;7391951;19;20058;-76
2023/04/15 13:55:27;;;;;;;2.53;1.75;;;;;;;;;;7389390;19;20010;-76
2023/04/15 13:57:52;;;;;;;4.15;1.50;;;;;;;;;;7391298;19;20013;-76
2023/04/15 14:00:18;;;;;;;1.75;1.42;;;;;;;;;;7394909;19;20011;-76
2023/04/15 14:02:43;;;;;;;2.65;1.75;;;;;;;;;;7396556;19;20002;-75
2023/04/15 14:05:09;;;;;;;2.92;1.35;;;;;;;;;;7388196;19;20046;-75
2023/04/15 14:07:35;;;;;;;2.80;1.67;;;;;;;;;;7394648;19;20062;-76
2023/04/15 14:10:00;;;;;;;2.35;1.52;;;;;;;;;;7391433;19;20374;-78
2023/04/15 14:12:29;;;;;;;2.40;1.60;;;;;;;;;;7392221;19;20010;-76
2023/04/15 14:14:54;;;;;;;2.08;1.60;;;;;;;;;;7388223;19;20326;-75
2023/04/15 14:17:20;;;;;;;2.60;1.70;;;;;;;;;;7386259;19;20009;-72
2023/04/15 14:19:45;;;;;;;3.28;1.83;;;;;;;;;;7388133;19;20039;-73
2023/04/15 14:22:11;;;;;;;2.30;1.75;;;;;;;;;;7386001;19;20432;-72
2023/04/15 14:24:36;;;;;;;2.35;1.70;;;;;;;;;;7382994;19;20296;-74
2023/04/15 14:27:02;;;;;;;3.10;1.88;;;;;;;;;;7387758;19;20014;-72
2023/04/15 14:29:27;;;;;;;2.42;1.48;;;;;;;;;;7387779;19;20113;-73
2023/04/15 14:31:52;;;;;;;2.97;1.80;;;;;;;;;;7386287;19;20030;-73
2023/04/15 14:34:21;;;;;;;3.15;1.50;;;;;;;;;;7386012;19;20017;-73
2023/04/15 14:36:49;;;;;;;1.70;1.40;;;;;;;;;;7387343;19;20016;-73
2023/04/15 14:39:15;;;;;;;1.58;1.48;;;;;;;;;;7388425;19;20009;-74
2023/04/15 14:41:40;;;;;;;5.13;1.67;;;;;;;;;;7386969;19;19998;-73